KLM24U EHAM-CYYT
Flight info
| Callsign | KLM24U |
|---|---|
| Flight time | N/A |
| Altitude | 36000 |
| Route | IDRID L980 LAM L179 UGBET Q60 OKSAW DCT FELCA DCT FADZU DCT BANBA DCT DOLIP DCT LIMRI/M084F360 DCT 53N020W 53N030W 52N040W 51N050W DCT ALLRY/N0487F360 DCT MIVAD AVALN5 |
| Aircraft | B77W/H-SDE1E2E3FGHIJ2J3J4J5M1RWXY/LB1D1 |
Departure
| Time | 2026-04-17 12:23 |
|---|---|
| Airport | Amsterdam Airport Schiphol (EHAM) |
Arrival
| Time | N/A |
|---|---|
| Airport | St. John's International Airport (CYYT) |
| Time | Latitude | Longitude | Altitude | Speed | Heading |
|---|---|---|---|---|---|
| 2026-04-17 12:02 | 52.31153 | 4.76505 | 3 ft | 0 kts | 125° |
| 2026-04-17 12:12 | 52.31162 | 4.76484 | 5 ft | 2 kts | 125° |
| 2026-04-17 12:12 | 52.31172 | 4.76461 | 6 ft | 3 kts | 121° |
| 2026-04-17 12:12 | 52.31178 | 4.76432 | 4 ft | 3 kts | 84° |
| 2026-04-17 12:13 | 52.31173 | 4.76403 | 8 ft | 3 kts | 49° |
| 2026-04-17 12:13 | 52.31165 | 4.76390 | 7 ft | 0 kts | 34° |
| 2026-04-17 12:16 | 52.31180 | 4.76403 | 5 ft | 9 kts | 26° |
| 2026-04-17 12:16 | 52.31249 | 4.76444 | 7 ft | 11 kts | 19° |
| 2026-04-17 12:17 | 52.31316 | 4.76499 | 10 ft | 11 kts | 31° |
| 2026-04-17 12:17 | 52.31385 | 4.76568 | 12 ft | 12 kts | 31° |
| 2026-04-17 12:17 | 52.31453 | 4.76653 | 15 ft | 13 kts | 51° |
| 2026-04-17 12:17 | 52.31478 | 4.76818 | 13 ft | 17 kts | 86° |
| 2026-04-17 12:18 | 52.31486 | 4.77032 | 13 ft | 20 kts | 89° |
| 2026-04-17 12:18 | 52.31438 | 4.77241 | 11 ft | 20 kts | 128° |
| 2026-04-17 12:18 | 52.31349 | 4.77414 | 11 ft | 19 kts | 134° |
| 2026-04-17 12:18 | 52.31231 | 4.77500 | 16 ft | 19 kts | 175° |
| 2026-04-17 12:19 | 52.31101 | 4.77494 | 15 ft | 19 kts | 186° |
| 2026-04-17 12:19 | 52.30972 | 4.77480 | 17 ft | 19 kts | 183° |
| 2026-04-17 12:19 | 52.30842 | 4.77468 | 16 ft | 18 kts | 183° |
| 2026-04-17 12:19 | 52.30725 | 4.77457 | 15 ft | 14 kts | 183° |
| 2026-04-17 12:20 | 52.30632 | 4.77491 | 17 ft | 14 kts | 159° |
| 2026-04-17 12:20 | 52.30579 | 4.77535 | 19 ft | 0 kts | 153° |
| 2026-04-17 12:20 | 52.30563 | 4.77548 | 19 ft | 8 kts | 153° |
| 2026-04-17 12:21 | 52.30510 | 4.77592 | 21 ft | 8 kts | 153° |
| 2026-04-17 12:21 | 52.30456 | 4.77628 | 26 ft | 8 kts | 169° |
| 2026-04-17 12:21 | 52.30401 | 4.77601 | 26 ft | 9 kts | 227° |
| 2026-04-17 12:21 | 52.30390 | 4.77572 | 21 ft | 0 kts | 239° |
| 2026-04-17 12:22 | 52.30386 | 4.77562 | 21 ft | 10 kts | 239° |
| 2026-04-17 12:22 | 52.30206 | 4.77084 | 18 ft | 89 kts | 237° |
| 2026-04-17 12:22 | 52.29749 | 4.75902 | 20 ft | 154 kts | 238° |
| 2026-04-17 12:22 | 52.29105 | 4.74239 | 250 ft | 185 kts | 236° |
| 2026-04-17 12:23 | 52.28373 | 4.72357 | 688 ft | 204 kts | 237° |
| 2026-04-17 12:23 | 52.27633 | 4.70397 | 1540 ft | 202 kts | 236° |
| 2026-04-17 12:23 | 52.26697 | 4.68670 | 2107 ft | 210 kts | 220° |
| 2026-04-17 12:23 | 52.25573 | 4.66964 | 2423 ft | 234 kts | 223° |
| 2026-04-17 12:24 | 52.24432 | 4.65042 | 3135 ft | 239 kts | 233° |
| 2026-04-17 12:24 | 52.23795 | 4.62478 | 3723 ft | 249 kts | 251° |
| 2026-04-17 12:24 | 52.23278 | 4.59752 | 4490 ft | 253 kts | 248° |
| 2026-04-17 12:24 | 52.22705 | 4.57022 | 5384 ft | 255 kts | 248° |
| 2026-04-17 12:25 | 52.22124 | 4.54270 | 6217 ft | 258 kts | 248° |
| 2026-04-17 12:25 | 52.21536 | 4.51485 | 7016 ft | 261 kts | 248° |
| 2026-04-17 12:25 | 52.20942 | 4.48665 | 7831 ft | 263 kts | 248° |
| 2026-04-17 12:25 | 52.20346 | 4.45843 | 8630 ft | 265 kts | 249° |
| 2026-04-17 12:26 | 52.19743 | 4.42986 | 9387 ft | 268 kts | 249° |
| 2026-04-17 12:26 | 52.19131 | 4.40086 | 10150 ft | 272 kts | 249° |
| 2026-04-17 12:26 | 52.18507 | 4.37135 | 10725 ft | 282 kts | 250° |
| 2026-04-17 12:26 | 52.17847 | 4.34019 | 10914 ft | 308 kts | 250° |
| 2026-04-17 12:27 | 52.17120 | 4.30593 | 11119 ft | 333 kts | 250° |
| 2026-04-17 12:27 | 52.16338 | 4.26911 | 11498 ft | 351 kts | 250° |
| 2026-04-17 12:27 | 52.15530 | 4.23105 | 12230 ft | 360 kts | 250° |
| 2026-04-17 12:27 | 52.14705 | 4.19223 | 13176 ft | 364 kts | 250° |
| 2026-04-17 12:28 | 52.13870 | 4.15305 | 14169 ft | 368 kts | 250° |
| 2026-04-17 12:28 | 52.13024 | 4.11347 | 15037 ft | 372 kts | 250° |
| 2026-04-17 12:28 | 52.12168 | 4.07349 | 15906 ft | 376 kts | 250° |
| 2026-04-17 12:28 | 52.11302 | 4.03308 | 16755 ft | 381 kts | 250° |
| 2026-04-17 12:29 | 52.10421 | 3.99209 | 17602 ft | 385 kts | 250° |
| 2026-04-17 12:29 | 52.09833 | 3.96478 | 18162 ft | 388 kts | 250° |
| 2026-04-17 12:29 | 52.08639 | 3.90936 | 19188 ft | 394 kts | 250° |
| 2026-04-17 12:29 | 52.07725 | 3.86716 | 19934 ft | 397 kts | 250° |
| 2026-04-17 12:30 | 52.06803 | 3.82462 | 20709 ft | 400 kts | 250° |
| 2026-04-17 12:30 | 52.06186 | 3.79628 | 21216 ft | 402 kts | 250° |
| 2026-04-17 12:30 | 52.05248 | 3.75332 | 21950 ft | 405 kts | 250° |
| 2026-04-17 12:30 | 52.04300 | 3.70997 | 22663 ft | 409 kts | 250° |
| 2026-04-17 12:31 | 52.03341 | 3.66618 | 23358 ft | 413 kts | 250° |
| 2026-04-17 12:31 | 52.02375 | 3.62208 | 23995 ft | 417 kts | 250° |
| 2026-04-17 12:31 | 52.01398 | 3.57758 | 24548 ft | 420 kts | 250° |
| 2026-04-17 12:31 | 52.00413 | 3.53289 | 25131 ft | 423 kts | 250° |
| 2026-04-17 12:32 | 51.99320 | 3.48825 | 25658 ft | 426 kts | 243° |
| 2026-04-17 12:32 | 51.97680 | 3.44789 | 26161 ft | 431 kts | 233° |
| 2026-04-17 12:32 | 51.95842 | 3.40999 | 26671 ft | 434 kts | 233° |
| 2026-04-17 12:32 | 51.93993 | 3.37121 | 27205 ft | 436 kts | 234° |
| 2026-04-17 12:33 | 51.92163 | 3.33177 | 27718 ft | 439 kts | 235° |
| 2026-04-17 12:33 | 51.90340 | 3.29170 | 28202 ft | 442 kts | 235° |
| 2026-04-17 12:33 | 51.88512 | 3.25139 | 28656 ft | 445 kts | 235° |
| 2026-04-17 12:33 | 51.86810 | 3.20936 | 29032 ft | 447 kts | 243° |
| 2026-04-17 12:34 | 51.85549 | 3.16327 | 29422 ft | 449 kts | 251° |
| 2026-04-17 12:34 | 51.84629 | 3.11560 | 29834 ft | 450 kts | 256° |
| 2026-04-17 12:34 | 51.84093 | 3.06558 | 30221 ft | 452 kts | 264° |
| 2026-04-17 12:34 | 51.83797 | 3.01469 | 30570 ft | 453 kts | 264° |
| 2026-04-17 12:35 | 51.83511 | 2.96387 | 30984 ft | 452 kts | 264° |
| 2026-04-17 12:35 | 51.83213 | 2.91332 | 31455 ft | 450 kts | 264° |
| 2026-04-17 12:35 | 51.82900 | 2.86315 | 31966 ft | 447 kts | 263° |
| 2026-04-17 12:35 | 51.82576 | 2.81326 | 32415 ft | 446 kts | 263° |
| 2026-04-17 12:37 | 51.80221 | 2.46731 | 34970 ft | 440 kts | 263° |
| 2026-04-17 12:37 | 51.79877 | 2.41825 | 35299 ft | 439 kts | 263° |
| 2026-04-17 12:38 | 51.79537 | 2.36991 | 35630 ft | 437 kts | 263° |
| 2026-04-17 12:38 | 51.79193 | 2.32115 | 35917 ft | 437 kts | 263° |
| 2026-04-17 12:38 | 51.78846 | 2.27230 | 36111 ft | 439 kts | 263° |
| 2026-04-17 12:39 | 51.78170 | 2.17363 | 36184 ft | 443 kts | 264° |
| 2026-04-17 12:39 | 51.77602 | 2.07479 | 36191 ft | 439 kts | 264° |
| 2026-04-17 12:40 | 51.77038 | 1.97693 | 36194 ft | 437 kts | 264° |
| 2026-04-17 12:40 | 51.76454 | 1.87935 | 36203 ft | 436 kts | 263° |
| 2026-04-17 12:41 | 51.75862 | 1.78257 | 36193 ft | 436 kts | 263° |
| 2026-04-17 12:41 | 51.75258 | 1.68495 | 36186 ft | 436 kts | 263° |
| 2026-04-17 12:42 | 51.74643 | 1.58737 | 36185 ft | 437 kts | 263° |
| 2026-04-17 12:42 | 51.74010 | 1.48965 | 36179 ft | 438 kts | 263° |
| 2026-04-17 12:43 | 51.73372 | 1.39240 | 36184 ft | 439 kts | 262° |
| 2026-04-17 12:43 | 51.72722 | 1.29433 | 36173 ft | 439 kts | 262° |
| 2026-04-17 12:44 | 51.72066 | 1.19618 | 36172 ft | 439 kts | 262° |
| 2026-04-17 12:44 | 51.71404 | 1.09821 | 36166 ft | 439 kts | 262° |
| 2026-04-17 12:45 | 51.70744 | 1.00022 | 36172 ft | 439 kts | 262° |
| 2026-04-17 12:45 | 51.70083 | 0.90295 | 36170 ft | 439 kts | 261° |
| 2026-04-17 12:46 | 51.69397 | 0.80507 | 36164 ft | 438 kts | 261° |
| 2026-04-17 12:46 | 51.68692 | 0.70749 | 36150 ft | 437 kts | 261° |
| 2026-04-17 12:47 | 51.67977 | 0.61029 | 36154 ft | 437 kts | 261° |
| 2026-04-17 12:47 | 51.67292 | 0.51287 | 36161 ft | 436 kts | 261° |
| 2026-04-17 12:48 | 51.66599 | 0.41637 | 36173 ft | 436 kts | 260° |
| 2026-04-17 12:48 | 51.65281 | 0.24146 | 36149 ft | 434 kts | 260° |
| 2026-04-17 12:49 | 51.63545 | 0.04956 | 36177 ft | 431 kts | 257° |
| 2026-04-17 12:49 | 51.61978 | -0.14187 | 36068 ft | 435 kts | 265° |
| 2026-04-17 12:50 | 51.62485 | -0.25410 | 36077 ft | 438 kts | 271° |
| 2026-04-17 12:50 | 51.63692 | -0.44730 | 36171 ft | 437 kts | 271° |
| 2026-04-17 12:51 | 51.64877 | -0.64911 | 36150 ft | 437 kts | 270° |
| 2026-04-17 12:51 | 51.66964 | -1.02096 | 36156 ft | 436 kts | 270° |
| 2026-04-17 12:52 | 51.67705 | -1.15862 | 36139 ft | 437 kts | 269° |
| 2026-04-17 12:52 | 51.68550 | -1.31902 | 36116 ft | 436 kts | 269° |
| 2026-04-17 12:53 | 51.69049 | -1.41580 | 36104 ft | 436 kts | 269° |
| 2026-04-17 12:53 | 51.69542 | -1.51317 | 36109 ft | 435 kts | 269° |
| 2026-04-17 12:54 | 51.70029 | -1.61044 | 36103 ft | 435 kts | 269° |
| 2026-04-17 12:54 | 51.70515 | -1.70754 | 36111 ft | 435 kts | 269° |
| 2026-04-17 12:55 | 51.71192 | -1.80462 | 36112 ft | 436 kts | 271° |
| 2026-04-17 12:55 | 51.71927 | -1.90104 | 36108 ft | 436 kts | 271° |
| 2026-04-17 12:56 | 51.72640 | -1.99817 | 36106 ft | 436 kts | 270° |
| 2026-04-17 12:56 | 51.73330 | -2.09560 | 36117 ft | 437 kts | 270° |
| 2026-04-17 12:57 | 51.74002 | -2.19252 | 36088 ft | 437 kts | 270° |
| 2026-04-17 12:57 | 51.74669 | -2.29006 | 36103 ft | 437 kts | 270° |
| 2026-04-17 12:58 | 51.75534 | -2.41802 | 36099 ft | 437 kts | 270° |
| 2026-04-17 12:58 | 51.76621 | -2.58216 | 36096 ft | 437 kts | 269° |
| 2026-04-17 12:59 | 51.77259 | -2.68027 | 36092 ft | 440 kts | 269° |
| 2026-04-17 12:59 | 51.77890 | -2.77865 | 36096 ft | 440 kts | 269° |
| 2026-04-17 13:00 | 51.78512 | -2.87637 | 36051 ft | 439 kts | 268° |
| 2026-04-17 13:00 | 51.79129 | -2.97445 | 36056 ft | 437 kts | 268° |
| 2026-04-17 13:01 | 51.79731 | -3.07192 | 36065 ft | 434 kts | 268° |
| 2026-04-17 13:01 | 51.80321 | -3.16886 | 36056 ft | 433 kts | 268° |
| 2026-04-17 13:02 | 51.80898 | -3.26513 | 36059 ft | 433 kts | 268° |
| 2026-04-17 13:02 | 51.81472 | -3.36220 | 36073 ft | 433 kts | 268° |
| 2026-04-17 13:03 | 51.82042 | -3.45943 | 36085 ft | 434 kts | 267° |
| 2026-04-17 13:03 | 51.82694 | -3.55622 | 36080 ft | 439 kts | 272° |
| 2026-04-17 13:04 | 51.83960 | -3.65321 | 36074 ft | 441 kts | 274° |
| 2026-04-17 13:04 | 51.85238 | -3.75024 | 36076 ft | 440 kts | 273° |
| 2026-04-17 13:05 | 51.86484 | -3.84704 | 36083 ft | 439 kts | 273° |
| 2026-04-17 13:05 | 51.87708 | -3.94317 | 36093 ft | 439 kts | 272° |
| 2026-04-17 13:06 | 51.88490 | -4.04020 | 36083 ft | 430 kts | 265° |
| 2026-04-17 13:06 | 51.88845 | -4.13697 | 36079 ft | 430 kts | 265° |
| 2026-04-17 13:07 | 51.89207 | -4.23388 | 36083 ft | 431 kts | 265° |
| 2026-04-17 13:07 | 51.89575 | -4.33092 | 36064 ft | 432 kts | 265° |
| 2026-04-17 13:08 | 51.89940 | -4.42751 | 36104 ft | 433 kts | 265° |
| 2026-04-17 13:08 | 51.90299 | -4.52493 | 36085 ft | 433 kts | 265° |
| 2026-04-17 13:09 | 51.90651 | -4.62243 | 36071 ft | 434 kts | 265° |
| 2026-04-17 13:09 | 51.90995 | -4.72008 | 36071 ft | 434 kts | 265° |
| 2026-04-17 13:10 | 51.91331 | -4.81779 | 36071 ft | 434 kts | 265° |
| 2026-04-17 13:10 | 51.91659 | -4.91559 | 36100 ft | 434 kts | 265° |
| 2026-04-17 13:11 | 51.91975 | -5.01266 | 36078 ft | 434 kts | 265° |
| 2026-04-17 13:11 | 51.92288 | -5.11040 | 36068 ft | 434 kts | 265° |
| 2026-04-17 13:12 | 51.92592 | -5.20813 | 36068 ft | 433 kts | 265° |
| 2026-04-17 13:12 | 51.93031 | -5.35452 | 36072 ft | 434 kts | 265° |
| 2026-04-17 13:13 | 51.93314 | -5.45223 | 36068 ft | 434 kts | 265° |
| 2026-04-17 13:13 | 51.93587 | -5.54926 | 36057 ft | 434 kts | 265° |
| 2026-04-17 13:14 | 51.93854 | -5.64698 | 36060 ft | 434 kts | 265° |
| 2026-04-17 13:14 | 51.94114 | -5.74487 | 36055 ft | 434 kts | 265° |
| 2026-04-17 13:15 | 51.94364 | -5.84266 | 36055 ft | 434 kts | 265° |
| 2026-04-17 13:15 | 51.94608 | -5.94057 | 36049 ft | 435 kts | 265° |
| 2026-04-17 13:16 | 51.94843 | -6.03877 | 36050 ft | 436 kts | 265° |
| 2026-04-17 13:16 | 51.95072 | -6.13698 | 36037 ft | 436 kts | 265° |
| 2026-04-17 13:17 | 51.95291 | -6.23470 | 36041 ft | 436 kts | 265° |
| 2026-04-17 13:17 | 51.95569 | -6.33314 | 36029 ft | 437 kts | 266° |
| 2026-04-17 13:18 | 51.95837 | -6.41499 | 36042 ft | 438 kts | 266° |
| 2026-04-17 13:18 | 51.96204 | -6.52992 | 36029 ft | 439 kts | 266° |
| 2026-04-17 13:19 | 51.96456 | -6.61304 | 36028 ft | 440 kts | 266° |
| 2026-04-17 13:19 | 51.96742 | -6.71159 | 36027 ft | 441 kts | 266° |
| 2026-04-17 13:20 | 51.97022 | -6.81087 | 36024 ft | 441 kts | 266° |
| 2026-04-17 13:20 | 51.97293 | -6.91027 | 36028 ft | 442 kts | 266° |
| 2026-04-17 13:21 | 51.97557 | -7.00992 | 36023 ft | 442 kts | 266° |
| 2026-04-17 13:21 | 51.97812 | -7.10973 | 36007 ft | 442 kts | 266° |
| 2026-04-17 13:22 | 51.98058 | -7.20868 | 36005 ft | 442 kts | 266° |
| 2026-04-17 13:22 | 51.98296 | -7.30826 | 35993 ft | 441 kts | 266° |
| 2026-04-17 13:23 | 51.98526 | -7.40786 | 36006 ft | 442 kts | 266° |
| 2026-04-17 13:23 | 51.98748 | -7.50765 | 35988 ft | 442 kts | 266° |
| 2026-04-17 13:24 | 51.98961 | -7.60737 | 35990 ft | 442 kts | 266° |
| 2026-04-17 13:24 | 51.99165 | -7.70652 | 35983 ft | 442 kts | 266° |
| 2026-04-17 13:25 | 51.99362 | -7.80630 | 35971 ft | 442 kts | 266° |
| 2026-04-17 13:25 | 51.99550 | -7.90616 | 35971 ft | 443 kts | 266° |
| 2026-04-17 13:26 | 51.99730 | -8.00624 | 35974 ft | 443 kts | 266° |
| 2026-04-17 13:26 | 51.99902 | -8.10624 | 35963 ft | 443 kts | 266° |
| 2026-04-17 13:27 | 52.00065 | -8.20628 | 35980 ft | 444 kts | 266° |
| 2026-04-17 13:27 | 52.00219 | -8.30654 | 35959 ft | 445 kts | 266° |
| 2026-04-17 13:28 | 52.00365 | -8.40648 | 35955 ft | 446 kts | 266° |
| 2026-04-17 13:28 | 52.00504 | -8.50729 | 35966 ft | 446 kts | 266° |
| 2026-04-17 13:29 | 52.00635 | -8.60822 | 35963 ft | 447 kts | 266° |
| 2026-04-17 13:29 | 52.00757 | -8.70898 | 35952 ft | 446 kts | 266° |
| 2026-04-17 13:30 | 52.00869 | -8.80961 | 35957 ft | 446 kts | 266° |
| 2026-04-17 13:30 | 52.00974 | -8.91032 | 35970 ft | 446 kts | 266° |
| 2026-04-17 13:31 | 52.01068 | -9.01035 | 35962 ft | 446 kts | 266° |
| 2026-04-17 13:31 | 52.01155 | -9.11103 | 35959 ft | 445 kts | 266° |
| 2026-04-17 13:32 | 52.01234 | -9.21150 | 35960 ft | 445 kts | 266° |
| 2026-04-17 13:32 | 52.01304 | -9.31220 | 35959 ft | 445 kts | 266° |
| 2026-04-17 13:33 | 52.01364 | -9.41233 | 35954 ft | 446 kts | 266° |
| 2026-04-17 13:33 | 52.01417 | -9.51319 | 35951 ft | 446 kts | 266° |
| 2026-04-17 13:34 | 52.01460 | -9.61382 | 35948 ft | 445 kts | 266° |
| 2026-04-17 13:34 | 52.01497 | -9.71437 | 35950 ft | 445 kts | 266° |
| 2026-04-17 13:35 | 52.01526 | -9.81494 | 35955 ft | 445 kts | 266° |